GMMW

Nador International Airport

Nador, Morocco
METAR GMMW 092100Z 22003KT 2000 BR NSC 09/08 Q1028 NOSIG
Observed Flight Rules
Dec-9 @ 21:00 UTC (39 minutes ago) Instrument Flight Rules
Wind Visibility Clouds Conditions
220° at 3 knots 1,996 meters
  • Clear skies
  • Mist
Temperatures Readings
Current 9°C / 48°F
Dewpoint 8°C / 46°F
Humidity 94%
Altimeter 30.35" Hg
Pressure 1028 hPa
Elevation 175
METAR GMMW 092100Z 22003KT 2000 BR NSC 09/08 Q1028 NOSIG
Observed Flight Rules
Dec-9 @ 21:00 UTC
(39 minutes ago)
IFR
Wind Visibility
220° at 3 knots 1,996 meters
Clouds
  • Clear skies
Conditions
  • Mist
Temperature Dewpoint
9°C / 48°F 8°C / 46°F
Humidity Altimeter Pressure
94% 30.35" Hg 1028 hPa